Aladdin, Wyoming
Current Conditions -  °F | °C
As of 7:15 AM on Monday 24 Nov 2014 (Local Time) from KSPF Reporting Station
Light Snow Light Snow  
Wind Chill: -7°   Ceiling: Unl
Heat Index: -1°   Visibility: 2mi
Dew Point: -2°   Wind: 13mph
Humidity: 93%   Direction: 290°WNW
Pressure: 29.81"   Gusts: 17mph
Location:  44.64°N, 104.18°W
Report Text: KSPF 241415Z AUTO 29011G15KT 2SM -SN SCT014 M01/M02 A2981 RMK AO2 P0004
Loading
Personal Weather Stations






























Interactive Weather Map New forecast layout! Learn more

10-Day Weather Forecast

Advertisements
Track Severe Weather on mobile